createdAt,value
2017-10-06T00:01:58.075Z,2.30
2017-10-06T00:04:25.939Z,2.23
2017-10-06T00:06:54.644Z,2.40
2017-10-06T00:09:22.628Z,2.40
2017-10-06T00:11:50.471Z,2.20
2017-10-06T00:14:18.224Z,2.53
2017-10-06T00:16:46.294Z,3.13
2017-10-06T00:19:14.141Z,2.30
2017-10-06T00:21:41.893Z,2.23
2017-10-06T00:24:09.709Z,1.97
2017-10-06T00:26:37.577Z,2.37
2017-10-06T00:29:05.442Z,2.43
2017-10-06T00:31:33.191Z,3.90
2017-10-06T00:34:00.951Z,4.63
2017-10-06T00:36:28.919Z,3.90
2017-10-06T00:38:56.694Z,2.80
2017-10-06T00:41:24.563Z,2.90
2017-10-06T00:43:52.517Z,3.13
2017-10-06T00:46:20.400Z,1.63
2017-10-06T00:48:48.160Z,2.10
2017-10-06T00:51:16.027Z,1.73
2017-10-06T00:53:43.902Z,1.60
2017-10-06T00:56:11.847Z,1.87
2017-10-06T00:58:39.663Z,1.70
2017-10-06T01:01:08.315Z,1.97
2017-10-06T01:03:36.185Z,1.70
2017-10-06T01:06:04.134Z,1.70
2017-10-06T01:08:31.891Z,2.67
2017-10-06T01:10:59.650Z,1.73
2017-10-06T01:13:27.399Z,2.40
2017-10-06T01:15:55.994Z,2.10
2017-10-06T01:18:23.789Z,2.20
2017-10-06T01:20:51.662Z,2.80
2017-10-06T01:23:19.523Z,2.23
2017-10-06T01:25:47.490Z,1.73
2017-10-06T01:28:15.381Z,2.40
2017-10-06T01:30:44.040Z,2.50
2017-10-06T01:33:11.921Z,2.10
2017-10-06T01:35:39.860Z,2.83
2017-10-06T01:38:07.753Z,1.43
2017-10-06T01:40:35.587Z,1.73
2017-10-06T01:43:03.363Z,1.60
2017-10-06T01:45:31.245Z,1.53
2017-10-06T01:47:59.112Z,1.50
2017-10-06T01:50:27.696Z,1.40
2017-10-06T01:52:55.483Z,1.90
2017-10-06T01:55:24.142Z,1.47
2017-10-06T01:57:52.005Z,1.70
2017-10-06T02:00:19.832Z,1.60
2017-10-06T02:02:47.720Z,1.30
2017-10-06T02:05:15.720Z,1.17
2017-10-06T02:07:43.583Z,1.03
2017-10-06T02:10:11.348Z,1.23
2017-10-06T02:12:39.288Z,1.30
2017-10-06T02:15:07.260Z,1.10
2017-10-06T02:17:35.033Z,1.23
2017-10-06T02:20:02.904Z,1.13
2017-10-06T02:22:30.768Z,1.20
2017-10-06T02:24:58.533Z,1.20
2017-10-06T02:27:26.299Z,1.57
2017-10-06T02:29:54.172Z,1.40
2017-10-06T02:32:22.036Z,1.37
2017-10-06T02:34:50.408Z,0.80
2017-10-06T02:37:18.276Z,1.10
2017-10-06T02:39:46.142Z,1.20
2017-10-06T02:42:14.016Z,0.90
2017-10-06T02:44:41.871Z,1.00
2017-10-06T02:47:09.636Z,0.97
2017-10-06T02:49:37.498Z,0.90
2017-10-06T02:52:05.268Z,1.13
2017-10-06T02:54:33.132Z,1.47
2017-10-06T02:57:00.897Z,1.47
2017-10-06T02:59:28.855Z,1.20
2017-10-06T03:01:56.626Z,1.60
2017-10-06T03:04:24.441Z,1.67
2017-10-06T03:06:52.272Z,1.87
2017-10-06T03:09:20.185Z,2.10
2017-10-06T03:11:48.008Z,1.30
2017-10-06T03:14:15.859Z,1.47
2017-10-06T03:16:43.620Z,1.40
2017-10-06T03:19:11.479Z,1.40
2017-10-06T03:21:39.358Z,1.13
2017-10-06T03:24:07.316Z,1.10
2017-10-06T03:26:35.099Z,1.43
2017-10-06T03:29:03.609Z,1.50
2017-10-06T03:31:32.240Z,1.20
2017-10-06T03:34:00.030Z,1.10
2017-10-06T03:36:28.090Z,1.67
2017-10-06T03:38:56.911Z,1.50
2017-10-06T03:41:25.564Z,1.40
2017-10-06T03:43:53.387Z,1.30
2017-10-06T03:46:21.191Z,1.60
2017-10-06T03:48:49.164Z,1.50
2017-10-06T03:51:16.920Z,1.30
2017-10-06T03:53:45.511Z,1.60
2017-10-06T03:56:13.275Z,1.57
2017-10-06T03:58:41.135Z,1.97
2017-10-06T04:01:08.933Z,2.00
2017-10-06T04:03:37.584Z,2.30
2017-10-06T04:06:05.440Z,2.70
2017-10-06T04:08:33.256Z,2.70
2017-10-06T04:11:01.808Z,3.20
2017-10-06T04:13:30.095Z,3.20
2017-10-06T04:15:58.047Z,3.20
2017-10-06T04:18:25.917Z,2.60
2017-10-06T04:20:53.883Z,2.83
2017-10-06T04:23:21.687Z,3.17
2017-10-06T04:25:50.228Z,2.80
2017-10-06T04:28:18.000Z,2.10
2017-10-06T04:30:46.068Z,3.37
2017-10-06T04:33:16.805Z,2.60
2017-10-06T04:35:45.392Z,2.60
2017-10-06T04:38:13.252Z,2.53
2017-10-06T04:40:41.134Z,3.10
2017-10-06T04:43:09.646Z,2.87
2017-10-06T04:45:37.451Z,2.60
2017-10-06T04:48:05.443Z,2.70
2017-10-06T04:50:33.299Z,2.20
2017-10-06T04:53:01.150Z,2.00
2017-10-06T04:55:28.966Z,2.20
2017-10-06T04:57:57.617Z,2.50
2017-10-06T05:00:25.666Z,2.50
2017-10-06T05:02:53.590Z,3.20
2017-10-06T05:05:22.614Z,3.37
2017-10-06T05:07:50.412Z,3.43
2017-10-06T05:10:18.179Z,2.63
2017-10-06T05:12:46.156Z,2.97
2017-10-06T05:15:14.124Z,2.53
2017-10-06T05:17:41.973Z,2.80
2017-10-06T05:20:09.848Z,2.70
2017-10-06T05:22:37.798Z,3.07
2017-10-06T05:25:05.665Z,3.07
2017-10-06T05:27:33.550Z,3.53
2017-10-06T05:30:01.321Z,4.37
2017-10-06T05:32:29.177Z,5.10
2017-10-06T05:34:56.940Z,4.73
2017-10-06T05:37:24.812Z,6.70
2017-10-06T05:39:52.576Z,6.60
2017-10-06T05:42:20.625Z,5.17
2017-10-06T05:44:48.366Z,5.03
2017-10-06T05:47:16.157Z,4.60
2017-10-06T05:49:43.934Z,4.10
2017-10-06T05:52:11.772Z,6.17
2017-10-06T05:54:39.518Z,12.40
2017-10-06T05:57:07.411Z,12.73
2017-10-06T05:59:35.297Z,8.50
2017-10-06T06:02:03.062Z,5.40
2017-10-06T06:04:30.929Z,3.90
2017-10-06T06:06:58.790Z,3.30
2017-10-06T06:09:26.697Z,4.47
2017-10-06T06:11:54.716Z,3.80
2017-10-06T06:14:22.505Z,5.10
2017-10-06T06:16:51.798Z,2.90
2017-10-06T06:19:19.667Z,4.50
2017-10-06T06:21:47.847Z,4.10
2017-10-06T06:24:15.747Z,3.63
2017-10-06T06:26:43.497Z,4.00
2017-10-06T06:29:12.235Z,4.20
2017-10-06T06:31:40.221Z,3.13
2017-10-06T06:34:08.485Z,3.17
2017-10-06T06:36:36.474Z,3.60
2017-10-06T06:39:04.437Z,2.90
2017-10-06T06:41:32.403Z,4.00
2017-10-06T06:44:01.000Z,4.00
2017-10-06T06:46:28.939Z,4.40
2017-10-06T06:48:57.098Z,3.93
2017-10-06T06:51:25.078Z,4.23
2017-10-06T06:53:52.965Z,5.00
2017-10-06T06:56:20.736Z,5.27
2017-10-06T06:58:48.512Z,4.50
2017-10-06T07:01:16.545Z,5.30
2017-10-06T07:03:44.515Z,4.10
2017-10-06T07:06:12.296Z,3.03
2017-10-06T07:08:40.348Z,2.23
2017-10-06T07:11:08.193Z,3.70
2017-10-06T07:13:35.998Z,3.53
2017-10-06T07:16:04.085Z,3.40
2017-10-06T07:18:32.038Z,3.90
2017-10-06T07:20:59.903Z,3.50
2017-10-06T07:23:27.679Z,3.30
2017-10-06T07:25:55.595Z,3.40
2017-10-06T07:28:23.350Z,3.80
2017-10-06T07:30:51.162Z,4.23
2017-10-06T07:33:19.052Z,4.30
2017-10-06T07:35:47.840Z,4.60
2017-10-06T07:38:15.738Z,3.13
2017-10-06T07:40:44.155Z,2.90
2017-10-06T07:43:11.938Z,2.07
2017-10-06T07:45:40.547Z,3.00
2017-10-06T07:48:10.110Z,2.30
2017-10-06T07:50:37.925Z,2.63
2017-10-06T07:53:06.778Z,2.70
2017-10-06T07:55:34.568Z,2.60
2017-10-06T07:58:03.091Z,2.23
2017-10-06T08:00:31.076Z,2.20
2017-10-06T08:02:59.021Z,2.13
2017-10-06T08:05:27.116Z,3.27
2017-10-06T08:07:55.086Z,3.10
2017-10-06T08:10:23.080Z,10.23
2017-10-06T08:12:51.044Z,4.97
2017-10-06T08:15:19.296Z,5.70
2017-10-06T08:17:47.267Z,17.03
2017-10-06T08:20:15.053Z,4.50
2017-10-06T08:22:43.103Z,3.33
2017-10-06T08:25:10.991Z,3.57
2017-10-06T08:27:40.491Z,1.93
2017-10-06T08:30:08.509Z,2.43
2017-10-06T08:32:36.430Z,1.67
2017-10-06T08:35:04.500Z,1.93
2017-10-06T08:37:33.580Z,3.53
2017-10-06T08:40:01.559Z,1.93
2017-10-06T08:42:30.134Z,1.80
2017-10-06T08:44:58.305Z,2.90
2017-10-06T08:47:26.209Z,2.87
2017-10-06T08:49:54.170Z,2.20
2017-10-06T08:52:22.110Z,2.57
2017-10-06T08:54:51.217Z,1.73
2017-10-06T08:57:19.039Z,3.00
2017-10-06T08:59:47.016Z,2.40
2017-10-06T09:02:14.791Z,3.40
2017-10-06T09:04:42.673Z,2.40
2017-10-06T09:07:10.842Z,1.97
2017-10-06T09:09:38.872Z,1.93
2017-10-06T09:12:07.621Z,1.70
2017-10-06T09:14:35.795Z,1.63
2017-10-06T09:17:03.633Z,2.10
2017-10-06T09:19:31.428Z,1.60
2017-10-06T09:22:00.092Z,2.20
2017-10-06T09:24:27.960Z,2.20
2017-10-06T09:26:55.825Z,1.93
2017-10-06T09:29:23.952Z,1.50
2017-10-06T09:31:52.512Z,2.27
2017-10-06T09:34:20.469Z,2.10
2017-10-06T09:36:48.328Z,2.07
2017-10-06T09:39:16.204Z,2.40
2017-10-06T09:41:44.561Z,1.60
2017-10-06T09:44:12.452Z,3.07
2017-10-06T09:46:40.499Z,2.47
2017-10-06T09:49:08.569Z,2.33
2017-10-06T09:51:36.662Z,2.03
2017-10-06T09:54:04.624Z,2.00
2017-10-06T09:56:32.612Z,2.07
2017-10-06T09:59:00.465Z,2.03
2017-10-06T10:01:28.472Z,2.20
2017-10-06T10:03:56.967Z,1.90
2017-10-06T10:06:24.787Z,2.50
2017-10-06T10:08:52.748Z,2.73
2017-10-06T10:11:20.521Z,2.33
2017-10-06T10:13:48.892Z,2.90
2017-10-06T10:16:18.192Z,3.00
2017-10-06T10:18:45.958Z,4.80
2017-10-06T10:21:13.832Z,3.00
2017-10-06T10:23:42.351Z,3.10
2017-10-06T10:26:10.170Z,2.70
2017-10-06T10:28:38.003Z,3.40
2017-10-06T10:31:05.985Z,2.80
2017-10-06T10:33:33.740Z,2.83
2017-10-06T10:36:01.539Z,2.40
2017-10-06T10:38:29.402Z,3.00
2017-10-06T10:40:57.148Z,3.60
2017-10-06T10:43:25.032Z,3.40
2017-10-06T10:45:52.902Z,3.97
2017-10-06T10:48:20.861Z,2.83
2017-10-06T10:50:48.732Z,3.20
2017-10-06T10:53:16.707Z,2.90
2017-10-06T10:55:44.651Z,2.70
2017-10-06T10:58:12.632Z,2.90
2017-10-06T11:00:40.474Z,2.73
2017-10-06T11:03:08.283Z,2.50
2017-10-06T11:05:36.350Z,2.40
2017-10-06T11:08:04.391Z,2.57
2017-10-06T11:10:32.360Z,2.33
2017-10-06T11:13:01.011Z,2.63
2017-10-06T11:15:28.932Z,3.20
2017-10-06T11:17:56.881Z,3.97
2017-10-06T11:20:24.764Z,3.17
2017-10-06T11:22:52.632Z,2.33
2017-10-06T11:25:20.619Z,3.03
2017-10-06T11:27:48.467Z,3.73
2017-10-06T11:30:17.100Z,3.30
2017-10-06T11:32:46.081Z,3.30
2017-10-06T11:35:14.672Z,2.80
2017-10-06T11:37:43.309Z,2.97
2017-10-06T11:40:11.263Z,2.63
2017-10-06T11:42:39.104Z,2.20
2017-10-06T11:45:07.100Z,2.20
2017-10-06T11:47:34.995Z,2.20
2017-10-06T11:50:03.042Z,2.83
2017-10-06T11:52:31.011Z,2.60
2017-10-06T11:54:59.073Z,3.07
2017-10-06T11:57:27.045Z,2.60
2017-10-06T11:59:55.016Z,2.20
2017-10-06T12:02:23.115Z,2.50
2017-10-06T12:04:52.420Z,2.20
2017-10-06T12:07:20.380Z,2.40
2017-10-06T12:09:48.422Z,2.23
2017-10-06T12:12:16.413Z,2.03
2017-10-06T12:14:44.547Z,2.37
2017-10-06T12:17:12.565Z,2.33
2017-10-06T12:19:40.458Z,2.60
2017-10-06T12:22:09.396Z,2.13
2017-10-06T12:24:37.366Z,2.57
2017-10-06T12:27:05.359Z,1.90
2017-10-06T12:29:33.214Z,2.43
2017-10-06T12:32:01.079Z,2.03
2017-10-06T12:34:28.934Z,2.57
2017-10-06T12:36:57.004Z,2.30
2017-10-06T12:39:24.897Z,2.10
2017-10-06T12:41:53.662Z,1.93
2017-10-06T12:44:21.548Z,2.37
2017-10-06T12:46:49.509Z,2.17
2017-10-06T12:49:17.358Z,1.77
2017-10-06T12:51:45.236Z,2.50
2017-10-06T12:54:13.056Z,1.90
2017-10-06T12:56:41.851Z,2.30
2017-10-06T12:59:10.366Z,3.10
2017-10-06T13:01:38.360Z,2.53
2017-10-06T13:04:06.300Z,2.83
2017-10-06T13:06:34.196Z,2.87
2017-10-06T13:09:02.164Z,2.20
2017-10-06T13:11:30.104Z,2.93
2017-10-06T13:13:57.971Z,2.73
2017-10-06T13:16:25.966Z,3.00
2017-10-06T13:18:53.836Z,2.67
2017-10-06T13:21:22.406Z,3.50
2017-10-06T13:23:50.256Z,2.70
2017-10-06T13:26:18.224Z,2.40
2017-10-06T13:28:46.006Z,3.10
2017-10-06T13:31:13.904Z,3.50
2017-10-06T13:33:42.463Z,3.40
2017-10-06T13:36:10.407Z,2.53
2017-10-06T13:38:38.186Z,2.70
2017-10-06T13:41:05.949Z,2.97
2017-10-06T13:43:33.912Z,2.60
2017-10-06T13:46:01.668Z,3.33
2017-10-06T13:48:29.454Z,4.13
2017-10-06T13:50:57.321Z,2.93
2017-10-06T13:53:25.073Z,2.93
2017-10-06T13:55:52.841Z,3.30
2017-10-06T13:58:20.751Z,2.43
2017-10-06T14:00:49.300Z,2.50
2017-10-06T14:03:17.144Z,3.07
2017-10-06T14:05:44.927Z,2.63
2017-10-06T14:08:14.230Z,3.50
2017-10-06T14:10:42.193Z,2.53
2017-10-06T14:13:10.055Z,1.60
2017-10-06T14:15:37.832Z,2.10
2017-10-06T14:18:05.979Z,2.37
2017-10-06T14:20:34.871Z,2.83
2017-10-06T14:23:02.838Z,1.70
2017-10-06T14:25:30.711Z,2.33
2017-10-06T14:27:58.469Z,9.00
2017-10-06T14:30:26.332Z,3.77
2017-10-06T14:32:54.117Z,2.60
2017-10-06T14:35:22.681Z,2.40
2017-10-06T14:37:50.585Z,4.47
2017-10-06T14:40:19.149Z,3.13
2017-10-06T14:42:47.025Z,3.00
2017-10-06T14:45:14.783Z,3.33
2017-10-06T14:47:42.635Z,3.70
2017-10-06T14:50:10.496Z,4.27
2017-10-06T14:52:39.508Z,3.63
2017-10-06T14:55:07.459Z,4.97
2017-10-06T14:57:35.565Z,10.10
2017-10-06T15:00:03.495Z,37.03
2017-10-06T15:02:31.390Z,5.10
2017-10-06T15:05:00.920Z,4.20
2017-10-06T15:07:29.173Z,4.83
2017-10-06T15:09:57.828Z,4.83
2017-10-06T15:12:25.802Z,4.90
2017-10-06T15:14:53.874Z,10.37
2017-10-06T15:17:21.782Z,4.30
2017-10-06T15:19:50.537Z,6.33
2017-10-06T15:22:18.421Z,4.90
2017-10-06T15:24:46.478Z,4.50
2017-10-06T15:27:14.453Z,4.33
2017-10-06T15:29:42.440Z,5.03
2017-10-06T15:32:11.059Z,11.20
2017-10-06T15:34:39.066Z,10.03
2017-10-06T15:37:07.059Z,7.60
2017-10-06T15:39:35.814Z,14.70
2017-10-06T15:42:03.831Z,5.43
2017-10-06T15:44:32.496Z,3.53
2017-10-06T15:47:00.579Z,3.73
2017-10-06T15:49:29.132Z,4.00
2017-10-06T15:51:57.088Z,5.47
2017-10-06T15:54:25.000Z,6.07
2017-10-06T15:56:53.876Z,4.60
2017-10-06T15:59:21.737Z,3.40
2017-10-06T16:01:49.690Z,4.00
2017-10-06T16:04:17.484Z,9.10
2017-10-06T16:06:46.094Z,4.57
2017-10-06T16:09:14.323Z,4.47
2017-10-06T16:11:43.195Z,5.10
2017-10-06T16:14:11.880Z,5.33
2017-10-06T16:16:39.763Z,4.57
2017-10-06T16:19:07.629Z,3.83
2017-10-06T16:21:35.513Z,6.07
2017-10-06T16:24:03.379Z,5.20
2017-10-06T16:26:31.164Z,8.17
2017-10-06T16:28:59.713Z,9.83
2017-10-06T16:31:27.470Z,15.30
2017-10-06T16:33:55.247Z,12.60
2017-10-06T16:36:23.011Z,10.10
2017-10-06T16:38:50.894Z,8.13
2017-10-06T16:41:19.551Z,6.53
2017-10-06T16:43:49.103Z,6.80
2017-10-06T16:46:17.747Z,6.80
2017-10-06T16:48:45.918Z,8.17
2017-10-06T16:51:14.573Z,7.20
2017-10-06T16:53:42.453Z,13.83
2017-10-06T16:56:11.034Z,6.23
2017-10-06T16:58:39.001Z,8.93
2017-10-06T17:01:07.152Z,7.77
2017-10-06T17:03:35.074Z,6.70
2017-10-06T17:06:03.028Z,15.63
2017-10-06T17:08:31.697Z,10.73
2017-10-06T17:10:59.581Z,8.20
2017-10-06T17:13:27.549Z,10.33
2017-10-06T17:15:55.421Z,18.33
2017-10-06T17:18:23.369Z,14.40
2017-10-06T17:20:51.204Z,10.67
2017-10-06T17:23:19.677Z,17.83
2017-10-06T17:25:47.497Z,24.50
2017-10-06T17:28:15.566Z,8.97
2017-10-06T17:30:43.433Z,10.20
2017-10-06T17:33:11.613Z,6.33
2017-10-06T17:35:39.664Z,6.90
2017-10-06T17:38:07.449Z,7.83
2017-10-06T17:40:35.322Z,9.03
2017-10-06T17:43:03.267Z,7.50
2017-10-06T17:45:31.130Z,5.90
2017-10-06T17:47:58.995Z,6.10
2017-10-06T17:50:26.786Z,6.07
2017-10-06T17:52:54.727Z,6.43
2017-10-06T17:55:22.625Z,7.03
2017-10-06T17:57:50.704Z,6.37
2017-10-06T18:00:19.276Z,8.43
2017-10-06T18:02:47.229Z,7.20
2017-10-06T18:05:15.021Z,8.10
2017-10-06T18:07:43.677Z,8.50
2017-10-06T18:10:11.530Z,7.20
2017-10-06T18:12:39.501Z,8.60
2017-10-06T18:15:07.488Z,7.60
2017-10-06T18:17:35.440Z,7.20
2017-10-06T18:20:03.347Z,7.30
2017-10-06T18:22:31.388Z,7.40
2017-10-06T18:24:59.343Z,6.60
2017-10-06T18:27:27.313Z,6.27
2017-10-06T18:29:55.283Z,6.40
2017-10-06T18:32:23.104Z,6.80
2017-10-06T18:34:51.870Z,6.50
2017-10-06T18:37:20.747Z,5.77
2017-10-06T18:39:48.722Z,6.77
2017-10-06T18:42:18.115Z,8.37
2017-10-06T18:44:47.407Z,7.30
2017-10-06T18:47:15.284Z,9.20
2017-10-06T18:49:44.358Z,7.30
2017-10-06T18:52:12.552Z,8.70
2017-10-06T18:54:40.540Z,7.37
2017-10-06T18:57:09.290Z,6.93
2017-10-06T18:59:37.259Z,7.80
2017-10-06T19:02:06.286Z,6.90
2017-10-06T19:04:35.065Z,7.27
2017-10-06T19:07:03.006Z,7.27
2017-10-06T19:09:31.205Z,7.63
2017-10-06T19:11:59.922Z,7.67
2017-10-06T19:14:27.869Z,7.33
2017-10-06T19:16:56.007Z,10.57
2017-10-06T19:19:24.227Z,7.30
2017-10-06T19:21:53.689Z,8.57
2017-10-06T19:24:21.654Z,9.40
2017-10-06T19:26:49.829Z,7.90
2017-10-06T19:29:17.895Z,5.73
2017-10-06T19:31:45.776Z,5.53
2017-10-06T19:34:13.755Z,5.40
2017-10-06T19:36:41.729Z,4.87
2017-10-06T19:39:09.615Z,5.37
2017-10-06T19:41:38.805Z,6.43
2017-10-06T19:44:06.946Z,6.30
2017-10-06T19:46:35.045Z,5.13
2017-10-06T19:49:03.336Z,5.10
2017-10-06T19:51:32.231Z,4.93
2017-10-06T19:54:00.625Z,4.83
2017-10-06T19:56:31.643Z,6.27
2017-10-06T19:59:00.540Z,5.83
2017-10-06T20:01:32.885Z,7.10
2017-10-06T20:04:00.937Z,6.27
2017-10-06T20:06:28.899Z,7.10
2017-10-06T20:08:56.892Z,5.97
2017-10-06T20:11:24.938Z,6.40
2017-10-06T20:13:53.299Z,6.73
2017-10-06T20:16:21.333Z,5.13
2017-10-06T20:18:50.075Z,6.80
2017-10-06T20:21:17.984Z,6.97
2017-10-06T20:23:46.934Z,6.60
2017-10-06T20:26:14.914Z,17.10
2017-10-06T20:28:43.031Z,8.67
2017-10-06T20:31:10.876Z,7.80
2017-10-06T20:33:39.698Z,8.63
2017-10-06T20:36:07.823Z,9.13
2017-10-06T20:38:35.809Z,7.87
2017-10-06T20:41:04.578Z,5.70
2017-10-06T20:43:32.630Z,7.00
2017-10-06T20:46:00.494Z,6.63
2017-10-06T20:48:28.675Z,5.83
2017-10-06T20:50:56.644Z,6.70
2017-10-06T20:53:24.945Z,6.80
2017-10-06T20:55:53.602Z,5.70
2017-10-06T20:58:21.773Z,8.13
2017-10-06T21:00:49.751Z,8.03
2017-10-06T21:03:17.629Z,7.57
2017-10-06T21:05:45.680Z,7.50
2017-10-06T21:08:13.644Z,9.00
2017-10-06T21:10:41.627Z,7.83
2017-10-06T21:13:09.500Z,6.77
2017-10-06T21:15:37.336Z,7.30
2017-10-06T21:18:05.521Z,7.00
2017-10-06T21:20:33.517Z,8.47
2017-10-06T21:23:01.306Z,7.47
2017-10-06T21:25:30.389Z,6.80
2017-10-06T21:27:59.134Z,10.97
2017-10-06T21:30:26.949Z,10.07
2017-10-06T21:32:55.780Z,8.60
2017-10-06T21:35:23.569Z,7.80
2017-10-06T21:37:51.416Z,8.27
2017-10-06T21:40:19.287Z,8.17
2017-10-06T21:42:47.097Z,7.97
2017-10-06T21:45:15.766Z,6.67
2017-10-06T21:47:43.603Z,7.77
2017-10-06T21:50:11.572Z,7.30
2017-10-06T21:52:39.954Z,7.33
2017-10-06T21:55:07.916Z,7.93
2017-10-06T21:57:35.801Z,7.83
2017-10-06T22:00:03.773Z,7.50
2017-10-06T22:02:31.742Z,6.87
2017-10-06T22:04:59.564Z,8.03
2017-10-06T22:07:27.380Z,7.10
2017-10-06T22:09:55.245Z,8.97
2017-10-06T22:12:23.231Z,7.30
2017-10-06T22:14:51.904Z,7.87
2017-10-06T22:17:21.333Z,8.03
2017-10-06T22:19:49.138Z,7.00
2017-10-06T22:22:16.931Z,5.73
2017-10-06T22:24:44.800Z,6.30
2017-10-06T22:27:12.656Z,7.10
2017-10-06T22:29:40.403Z,7.10
2017-10-06T22:32:08.475Z,10.23
2017-10-06T22:34:36.460Z,8.60
2017-10-06T22:37:04.425Z,8.00
2017-10-06T22:39:32.279Z,7.60
2017-10-06T22:42:00.351Z,7.07
2017-10-06T22:44:28.237Z,6.53
2017-10-06T22:46:56.092Z,6.60
2017-10-06T22:49:24.070Z,7.60
2017-10-06T22:51:52.523Z,7.10
2017-10-06T22:54:20.396Z,8.07
2017-10-06T22:56:48.277Z,7.93
2017-10-06T22:59:16.031Z,6.20
2017-10-06T23:01:43.962Z,6.23
2017-10-06T23:04:11.778Z,7.80
2017-10-06T23:06:39.839Z,6.90
2017-10-06T23:09:07.564Z,7.00
2017-10-06T23:11:35.416Z,7.00
2017-10-06T23:14:03.970Z,6.17
2017-10-06T23:16:31.727Z,6.80
2017-10-06T23:18:59.626Z,6.80
2017-10-06T23:21:28.365Z,8.17
2017-10-06T23:23:56.534Z,8.30
2017-10-06T23:26:24.342Z,6.93
2017-10-06T23:28:52.851Z,4.50
2017-10-06T23:31:20.856Z,5.10
2017-10-06T23:33:48.631Z,5.97
2017-10-06T23:36:16.509Z,5.37
2017-10-06T23:38:44.363Z,4.70
2017-10-06T23:41:12.327Z,5.43
2017-10-06T23:43:40.090Z,3.80
2017-10-06T23:46:08.105Z,3.60
2017-10-06T23:48:36.836Z,4.23
2017-10-06T23:51:04.616Z,4.90
2017-10-06T23:53:32.569Z,5.27
2017-10-06T23:56:00.556Z,5.00
2017-10-06T23:58:28.827Z,4.90
